Aydlett, North Carolina
Current Conditions -  °F | °C
As of 1:35 PM on Saturday 25 Oct 2014 (Local Time) from KONX Reporting Station
Clear Clear  
Wind Chill: 20°   Ceiling: Unl
Heat Index: 20°   Visibility: 10mi
Dew Point:   Wind: 5mph
Humidity: 42%   Direction: 30°NNE
Pressure: 29.93"   Gusts: NA
Location:  36.33°N, 75.91°W
Report Text: KONX 251735Z AUTO 03004KT 10SM CLR 20/06 A2993 RMK AO2 T01980064
Loading
Personal Weather Stations






























Interactive Weather Map
Tropical Storm Tracking
New forecast layout! Learn more

10-Day Weather Forecast

Advertisements
Track Severe Weather on mobile